Thunder radar more information blitzortung!


Radar de pluja more information rain snow radar


Visita la nostra xarxa de llocs de meteo:

Template documentation
and downloads

And another site



No particular awareness of the weather is required.    There are no Weather-warnings

Pagina Historial Weather Underground text

Diari Resum Juliol 23, 2017 Unitats:  Imperial    Mètric   Tant
« Previous Dia
SegĂźent Dia »
Diari Setmana Mensual Anual Personalitzada
  Maxima: Minima: Media:
Temperatura: TemperatureC °F 17.3 °F 23.3 °F
Punt de rosada: DewpointC °F 14.8 °F 17.5 °F
Humitat: Humidity % 50 % 71 %
Wind Speed: WindSpeedKMH mph 0.0 mph 6.2 mph
RĂ fegues de vent: WindSpeedGustKMH mph - -
Vent:- - SE
Pression baro: PressurehPa in 1012.8 in -
Precipitacions: 5.3 in    
Historical Graphs
 
 
Dades de taula per Juliol 23, 2017
Temps Temperatura Punt de rosada Pression baro Vent Wind Speed RĂ fegues de vent Humitat Rainfall Rate (Hourly)
TemperatureC °F DewpointC °F PressurehPa in Calm     Humidity % HourlyPrecipMM in
00:00 22.5 °F 18.3 °F 1015.8 in NNE 1.6 mph 1.6 mph 77 % 0.0 in
00:02 24.2 °F 17.9 °F 1014.8 in WSW 1.9 mph   68 % 0.0 in
00:10 22.5 °F 18.3 °F 1015.8 in Calm   3.2 mph 77 % 0.0 in
00:20 22.5 °F 18.3 °F 1015.8 in Calm   1.6 mph 77 % 0.0 in
00:30 22.5 °F 18.4 °F 1015.8 in NE 1.6 mph 1.6 mph 78 % 0.0 in
00:40 22.4 °F 18.4 °F 1015.8 in NE 1.6 mph 4.8 mph 78 % 0.0 in
00:50 22.4 °F 18.4 °F 1015.8 in NE 1.6 mph 3.2 mph 78 % 0.0 in
01:00 22.5 °F 18.4 °F 1015.8 in NE 3.2 mph 4.8 mph 78 % 0.0 in
01:10 22.5 °F 18.4 °F 1016.8 in NE 3.2 mph 4.8 mph 78 % 0.0 in
01:20 22.5 °F 18.7 °F 1016.8 in NE 1.6 mph 3.2 mph 79 % 0.0 in
01:30 22.4 °F 18.6 °F 1016.8 in NE 3.2 mph 4.8 mph 79 % 0.0 in
01:40 22.4 °F 18.6 °F 1016.8 in NNE 4.8 mph 6.4 mph 79 % 0.0 in
01:50 22.5 °F 18.7 °F 1016.8 in NNE 4.8 mph 6.4 mph 79 % 0.0 in
02:00 22.5 °F 18.9 °F 1016.8 in NE 4.8 mph 6.4 mph 80 % 0.0 in
02:10 22.6 °F 19.0 °F 1016.8 in NNE 1.6 mph 4.8 mph 80 % 0.0 in
02:20 22.6 °F 19.0 °F 1016.8 in Calm   4.8 mph 80 % 0.0 in
02:30 22.7 °F 19.1 °F 1017.8 in Calm   1.6 mph 80 % 0.0 in
02:40 22.8 °F 19.2 °F 1017.8 in NE 3.2 mph 3.2 mph 80 % 0.0 in
02:50 23.0 °F 19.2 °F 1017.8 in NE 1.6 mph 4.8 mph 79 % 0.0 in
03:00 23.2 °F 19.2 °F 1017.8 in NE 3.2 mph 3.2 mph 78 % 0.0 in
03:10 23.7 °F 19.6 °F 1017.8 in NE 1.6 mph 3.2 mph 78 % 0.0 in
03:20 23.9 °F 19.6 °F 1017.8 in NE 3.2 mph 4.8 mph 77 % 0.0 in
03:30 24.4 °F 19.9 °F 1017.8 in NE 3.2 mph 4.8 mph 76 % 0.0 in
03:40 24.8 °F 20.1 °F 1017.8 in NE 3.2 mph 4.8 mph 75 % 0.0 in
03:50 24.7 °F 19.8 °F 1017.8 in NE 4.8 mph 6.4 mph 74 % 0.0 in
04:00 25.1 °F 19.7 °F 1017.8 in NE 3.2 mph 4.8 mph 72 % 0.0 in
04:10 25.4 °F 19.6 °F 1017.8 in East 3.2 mph 4.8 mph 70 % 0.0 in
04:20 25.2 °F 19.3 °F 1017.8 in ESE 3.2 mph 6.4 mph 70 % 0.0 in
04:30 25.2 °F 19.3 °F 1017.8 in SE 1.6 mph 3.2 mph 70 % 0.0 in
04:40 25.3 °F 19.4 °F 1017.8 in South 3.2 mph 3.2 mph 70 % 0.0 in
04:50 25.7 °F 19.8 °F 1017.8 in ESE 1.6 mph 3.2 mph 70 % 0.0 in
05:00 25.7 °F 19.6 °F 1017.8 in ENE 1.6 mph 3.2 mph 69 % 0.0 in
05:10 25.8 °F 19.7 °F 1017.8 in NE 3.2 mph 3.2 mph 69 % 0.0 in
05:20 25.7 °F 19.6 °F 1017.8 in East 1.6 mph 3.2 mph 69 % 0.0 in
05:30 25.9 °F 19.6 °F 1017.8 in ESE 1.6 mph 3.2 mph 68 % 0.0 in
05:40 25.7 °F 19.1 °F 1017.8 in East 1.6 mph 6.4 mph 67 % 0.0 in
05:50 25.8 °F 18.9 °F 1017.8 in NE 3.2 mph 4.8 mph 66 % 0.0 in
05:55 26.0 °F 19.4 °F 1017.8 in ENE 1.6 mph 3.2 mph 67 % 0.0 in
10:56 26.0 °F 18.9 °F 1017.8 in ESE 5.6 mph 5.6 mph 65 % 0.0 in
11:01 26.0 °F 18.9 °F 1017.8 in ESE 11.1 mph 11.1 mph 65 % 0.0 in
11:06 26.0 °F 18.7 °F 1017.8 in ESE 5.8 mph 5.8 mph 64 % 0.0 in
11:11 26.0 °F 19.2 °F 1017.8 in SSW 11.1 mph 11.1 mph 66 % 0.0 in
11:16 26.2 °F 19.3 °F 1017.8 in South 5.6 mph 5.6 mph 66 % 0.0 in
11:21 26.4 °F 19.6 °F 1017.8 in SSW 5.6 mph 5.6 mph 66 % 0.0 in
11:26 26.4 °F 19.6 °F 1017.8 in WSW 5.6 mph 5.6 mph 66 % 0.0 in
11:31 26.6 °F 19.5 °F 1017.8 in SW 5.8 mph 5.8 mph 65 % 0.0 in
11:36 26.8 °F 19.7 °F 1017.8 in SW 1.9 mph 2.3 mph 65 % 0.0 in
11:41 27.0 °F 19.6 °F 1017.8 in SW 3.7 mph   64 % 0.0 in
11:42 27.0 °F 19.6 °F 1017.8 in SW 1.9 mph   64 % 0.0 in
11:46 27.0 °F 19.3 °F 1017.8 in ESE 5.6 mph 5.6 mph 63 % 0.0 in
11:51 27.0 °F 19.1 °F 1017.8 in SE 7.4 mph 7.4 mph 62 % 0.0 in
11:56 26.8 °F 18.9 °F 1017.8 in South 5.6 mph 5.6 mph 62 % 0.0 in
12:02 26.8 °F 18.7 °F 1017.8 in South 9.3 mph 9.3 mph 61 % 0.0 in
12:07 27.2 °F 18.8 °F 1017.8 in ESE 3.7 mph 3.7 mph 60 % 0.0 in
12:12 27.2 °F 18.8 °F 1017.8 in South 5.6 mph 5.6 mph 60 % 0.0 in
12:17 27.4 °F 18.9 °F 1017.8 in Calm   2.3 mph 60 % 0.0 in
12:22 27.2 °F 18.5 °F 1017.8 in SSE 9.3 mph 9.3 mph 59 % 0.0 in
12:27 27.2 °F 18.5 °F 1017.8 in ESE 8.7 mph 8.7 mph 59 % 0.0 in
12:32 27.4 °F 18.7 °F 1017.8 in South 7.4 mph 7.4 mph 59 % 0.0 in
12:37 27.4 °F 18.7 °F 1017.8 in SSE 5.6 mph 5.6 mph 59 % 0.0 in
12:42 27.9 °F 19.2 °F 1017.8 in SSE 3.7 mph 3.9 mph 59 % 0.0 in
12:47 27.9 °F 19.2 °F 1017.8 in ENE 9.3 mph 9.3 mph 59 % 0.0 in
12:52 27.6 °F 18.9 °F 1017.8 in East 7.4 mph 7.4 mph 59 % 0.0 in
12:57 27.9 °F 18.9 °F 1017.8 in East 16.7 mph 16.7 mph 58 % 0.0 in
13:02 27.7 °F 18.7 °F 1017.8 in East 7.4 mph 7.4 mph 58 % 0.0 in
13:07 27.6 °F 18.3 °F 1017.8 in SE 9.3 mph 9.3 mph 57 % 0.0 in
13:12 27.4 °F 18.1 °F 1017.8 in ESE 7.6 mph 9.0 mph 57 % 0.0 in
13:17 27.5 °F 18.2 °F 1017.8 in East 13.0 mph 13.0 mph 57 % 0.0 in
13:22 27.6 °F 18.1 °F 1017.8 in ESE 13.0 mph 13.0 mph 56 % 0.0 in
13:27 27.2 °F 17.4 °F 1017.8 in ENE 14.8 mph 14.8 mph 55 % 0.0 in
13:32 27.3 °F 17.8 °F 1017.8 in NNE 7.4 mph 7.9 mph 56 % 0.0 in
13:37 27.0 °F 16.9 °F 1016.8 in East 16.7 mph 16.7 mph 54 % 0.0 in
13:42 27.3 °F 17.2 °F 1016.8 in South 9.3 mph 9.3 mph 54 % 0.0 in
13:47 27.2 °F 17.1 °F 1016.8 in SE 13.0 mph 13.0 mph 54 % 0.0 in
13:52 27.0 °F 16.9 °F 1016.8 in ESE 14.8 mph 14.8 mph 54 % 0.0 in
13:57 27.0 °F 16.9 °F 1016.8 in ESE 9.3 mph 9.3 mph 54 % 0.0 in
14:02 27.1 °F 17.0 °F 1016.8 in ESE 13.0 mph 13.0 mph 54 % 0.0 in
14:07 27.0 °F 16.6 °F 1015.8 in ESE 11.1 mph 11.1 mph 53 % 0.0 in
14:12 27.3 °F 17.2 °F 1015.8 in ENE 11.1 mph 11.1 mph 54 % 0.0 in
14:17 27.3 °F 16.9 °F 1015.8 in ENE 12.6 mph 12.6 mph 53 % 0.0 in
14:22 27.4 °F 17.0 °F 1014.8 in East 9.3 mph 9.3 mph 53 % 0.0 in
14:27 27.4 °F 17.0 °F 1014.8 in ESE 13.0 mph 13.0 mph 53 % 0.0 in
14:32 27.7 °F 17.3 °F 1014.8 in SE 7.4 mph 7.4 mph 53 % 0.0 in
14:37 28.0 °F 17.5 °F 1016.8 in ESE 9.3 mph 9.3 mph 53 % 0.0 in
14:42 27.8 °F 17.1 °F 1016.8 in ENE 9.3 mph 9.3 mph 52 % 0.0 in
14:47 27.9 °F 17.1 °F 1016.8 in ESE 9.7 mph 9.7 mph 52 % 0.0 in
14:52 27.8 °F 17.1 °F 1015.8 in South 11.1 mph 11.1 mph 52 % 0.0 in
14:57 27.8 °F 16.7 °F 1015.8 in ESE 16.9 mph 16.9 mph 51 % 0.0 in
15:02 28.5 °F 17.7 °F 1015.8 in SE 9.3 mph 9.3 mph 52 % 0.0 in
15:07 28.6 °F 17.2 °F 1015.8 in ENE 11.1 mph 11.1 mph 50 % 0.0 in
15:12 28.4 °F 17.0 °F 1015.8 in East 14.8 mph 14.8 mph 50 % 0.0 in
15:17 28.0 °F 16.6 °F 1015.8 in South 14.8 mph 14.8 mph 50 % 0.0 in
15:22 28.7 °F 17.2 °F 1015.8 in SE 18.5 mph 18.5 mph 50 % 0.0 in
15:27 28.3 °F 16.9 °F 1015.8 in ESE 13.0 mph 13.0 mph 50 % 0.0 in
15:32 28.4 °F 17.0 °F 1015.8 in SE 13.0 mph 13.0 mph 50 % 0.0 in
15:37 28.1 °F 16.7 °F 1014.8 in ENE 18.5 mph 18.5 mph 50 % 0.0 in
15:42 27.9 °F 16.5 °F 1014.8 in East 16.7 mph 16.7 mph 50 % 0.0 in
15:47 27.8 °F 16.7 °F 1014.8 in NE 14.8 mph 14.8 mph 51 % 0.0 in
15:52 28.2 °F 17.1 °F 1014.8 in South 9.3 mph 9.3 mph 51 % 0.0 in
15:57 28.2 °F 17.1 °F 1014.8 in SW 7.4 mph 7.4 mph 51 % 0.0 in
16:02 28.0 °F 16.9 °F 1014.8 in ESE 9.3 mph 9.3 mph 51 % 0.0 in
16:07 28.1 °F 17.0 °F 1014.8 in SSE 11.4 mph 11.4 mph 51 % 0.0 in
16:12 28.2 °F 17.1 °F 1014.8 in ESE 7.4 mph 7.4 mph 51 % 0.0 in
16:17 28.0 °F 16.9 °F 1014.8 in ESE 5.6 mph 5.6 mph 51 % 0.0 in
16:22 28.4 °F 17.3 °F 1015.8 in ESE 5.6 mph 5.6 mph 51 % 0.0 in
16:27 28.6 °F 17.4 °F 1015.8 in ESE 9.3 mph 9.3 mph 51 % 0.0 in
16:32 28.1 °F 17.0 °F 1015.8 in ESE 16.7 mph 16.7 mph 51 % 0.0 in
16:37 27.6 °F 16.6 °F 1014.8 in ESE 14.8 mph 14.8 mph 51 % 0.0 in
16:42 27.2 °F 16.5 °F 1014.8 in ESE 9.5 mph 11.1 mph 52 % 0.0 in
16:47 27.1 °F 16.4 °F 1014.8 in SSW 18.5 mph 18.5 mph 52 % 0.0 in
16:52 27.1 °F 16.7 °F 1014.8 in SE 12.6 mph 12.6 mph 53 % 0.0 in
16:57 26.7 °F 16.6 °F 1014.8 in South 11.9 mph 14.0 mph 54 % 0.0 in
17:02 27.0 °F 16.9 °F 1014.8 in SSE 9.3 mph 9.3 mph 54 % 0.0 in
17:07 26.7 °F 16.9 °F 1014.8 in SSE 7.4 mph 7.6 mph 55 % 0.0 in
17:12 26.7 °F 16.9 °F 1014.8 in ENE 9.3 mph 9.3 mph 55 % 0.0 in
17:17 26.6 °F 17.1 °F 1014.8 in ESE 14.0 mph 14.0 mph 56 % 0.0 in
17:22 26.3 °F 17.1 °F 1014.8 in ESE 10.3 mph 10.3 mph 57 % 0.0 in
17:27 26.3 °F 17.1 °F 1014.8 in NE 9.3 mph 9.3 mph 57 % 0.0 in
17:32 26.6 °F 17.4 °F 1014.8 in SE 6.1 mph 6.4 mph 57 % 0.0 in
17:37 27.3 °F 17.8 °F 1014.8 in SE 5.6 mph 5.6 mph 56 % 0.0 in
17:42 27.4 °F 17.6 °F 1014.8 in WSW 13.0 mph 13.0 mph 55 % 0.0 in
17:47 27.2 °F 17.1 °F 1014.8 in SW 13.0 mph 13.0 mph 54 % 0.0 in
17:52 27.4 °F 17.3 °F 1014.8 in SSE 13.0 mph 13.0 mph 54 % 0.0 in
17:57 27.2 °F 17.1 °F 1014.8 in West 9.3 mph 9.3 mph 54 % 0.0 in
18:02 27.1 °F 17.0 °F 1014.8 in WSW 9.3 mph 9.3 mph 54 % 0.0 in
18:07 27.1 °F 17.3 °F 1014.8 in SSW 7.9 mph 7.9 mph 55 % 0.0 in
18:12 26.9 °F 17.4 °F 1014.8 in SSW 9.3 mph 9.3 mph 56 % 0.0 in
18:17 26.7 °F 17.2 °F 1014.8 in South 14.8 mph 14.8 mph 56 % 0.0 in
18:22 26.5 °F 17.0 °F 1014.8 in South 11.1 mph 11.1 mph 56 % 0.0 in
18:27 26.4 °F 16.9 °F 1014.8 in SW 13.0 mph 13.0 mph 56 % 0.0 in
18:32 26.2 °F 16.7 °F 1014.8 in SW 13.0 mph 13.0 mph 56 % 0.0 in
18:37 25.9 °F 16.4 °F 1015.8 in SW 16.1 mph 16.1 mph 56 % 0.0 in
18:42 25.8 °F 16.6 °F 1015.8 in SSE 13.0 mph 13.0 mph 57 % 0.0 in
18:47 25.5 °F 16.6 °F 1015.8 in WSW 12.6 mph 12.6 mph 58 % 0.0 in
18:52 23.5 °F 16.8 °F 1015.8 in SSW 37.0 mph 37.0 mph 66 % 0.0 in
18:57 21.2 °F 15.5 °F 1015.8 in SSW 14.8 mph 14.8 mph 70 % 0.0 in
19:02 20.4 °F 15.6 °F 1015.8 in SW 28.2 mph 28.2 mph 74 % 1.3 in
19:07 19.4 °F 15.1 °F 1014.8 in West 14.8 mph 14.8 mph 76 % 1.3 in
19:12 19.1 °F 14.8 °F 1014.8 in SW 11.1 mph 11.1 mph 76 % 1.3 in
19:17 19.2 °F 15.1 °F 1014.8 in West 3.7 mph 3.7 mph 77 % 3.3 in
19:22 19.3 °F 15.6 °F 1015.8 in NNE 3.7 mph 3.7 mph 79 % 3.3 in
19:27 19.3 °F 15.8 °F 1015.8 in NE 5.6 mph 5.6 mph 80 % 3.3 in
19:32 19.5 °F 16.2 °F 1015.8 in WNW 2.3 mph   81 % 4.3 in
19:37 19.4 °F 15.8 °F 1013.8 in WNW 2.3 mph 2.3 mph 80 % 4.3 in
19:42 19.4 °F 16.2 °F 1013.8 in NE 3.7 mph 3.7 mph 82 % 5.3 in
19:47 19.4 °F 16.4 °F 1013.8 in NNE 7.9 mph 7.9 mph 83 % 5.3 in
19:52 19.3 °F 16.3 °F 1013.8 in ENE 9.3 mph 9.3 mph 83 % 5.3 in
19:57 19.3 °F 16.5 °F 1013.8 in NE 9.3 mph 9.3 mph 84 % 5.3 in
20:02 19.1 °F 16.3 °F 1013.8 in NNE 13.0 mph 13.0 mph 84 % 4.1 in
20:07 19.4 °F 16.8 °F 1013.8 in ENE 7.4 mph 7.4 mph 85 % 4.1 in
20:12 19.2 °F 16.8 °F 1013.8 in WNW 7.4 mph 7.4 mph 86 % 4.1 in
20:15 18.7 °F 17.4 °F 1015.8 in Calm     92 % 0.0 in
20:17 19.3 °F 17.1 °F 1013.8 in North 9.3 mph 9.3 mph 87 % 2.0 in
20:22 19.3 °F 16.9 °F 1013.8 in SW 4.7 mph 4.7 mph 86 % 2.0 in
20:25 18.7 °F 17.4 °F 1015.8 in Calm     92 % 0.0 in
20:27 19.4 °F 17.2 °F 1013.8 in ENE 3.7 mph 3.7 mph 87 % 2.0 in
20:32 19.4 °F 17.2 °F 1013.8 in ENE 1.9 mph   87 % 1.0 in
20:35 18.6 °F 17.3 °F 1015.8 in Calm     92 % 0.0 in
20:37 19.5 °F 17.3 °F 1012.8 in SW 4.2 mph 4.2 mph 87 % 1.0 in
20:42 19.4 °F 17.2 °F 1012.8 in SW 3.7 mph   87 % 0.0 in
20:45 18.5 °F 17.2 °F 1015.8 in Calm     92 % 0.0 in
20:47 19.4 °F 17.0 °F 1012.8 in WSW 3.7 mph 3.7 mph 86 % 0.0 in
20:52 19.4 °F 17.0 °F 1013.8 in SW 4.7 mph 4.7 mph 86 % 0.0 in
20:55 18.4 °F 17.1 °F 1015.8 in Calm     92 % 0.0 in
20:57 19.3 °F 17.1 °F 1013.8 in SW 3.7 mph 3.7 mph 87 % 0.0 in
21:02 19.2 °F 17.0 °F 1013.8 in SW 3.7 mph 3.7 mph 87 % 0.0 in
21:05 18.4 °F 17.1 °F 1016.8 in Calm     92 % 0.0 in
21:07 19.1 °F 16.9 °F 1013.8 in SW 1.9 mph 1.9 mph 87 % 0.0 in
21:12 19.1 °F 16.7 °F 1013.8 in WSW 7.4 mph 7.4 mph 86 % 0.0 in
21:15 18.3 °F 17.2 °F 1016.8 in Calm     93 % 0.0 in
21:17 19.1 °F 16.9 °F 1013.8 in West 3.7 mph 3.7 mph 87 % 0.0 in
21:22 19.0 °F 16.8 °F 1013.8 in SW 5.8 mph 5.8 mph 87 % 0.0 in
21:25 18.3 °F 17.2 °F 1015.8 in Calm     93 % 0.0 in
21:27 19.0 °F 16.6 °F 1013.8 in SW 5.0 mph 5.0 mph 86 % 0.0 in
21:28 19.0 °F 16.6 °F 1013.8 in West 3.7 mph 4.2 mph 86 % 0.0 in
21:33 19.1 °F 16.9 °F 1013.8 in NNE 1.9 mph   87 % 0.0 in
21:35 18.3 °F 17.2 °F 1015.8 in Calm     93 % 0.0 in
21:38 19.1 °F 17.1 °F 1013.8 in NNE 3.7 mph 3.7 mph 88 % 0.0 in
21:43 19.1 °F 17.1 °F 1013.8 in NNE 3.7 mph 3.7 mph 88 % 0.0 in
21:45 18.3 °F 17.2 °F 1015.8 in Calm     93 % 0.0 in
21:48 19.1 °F 17.2 °F 1013.8 in ENE 3.7 mph 3.7 mph 89 % 0.0 in
21:53 19.0 °F 17.2 °F 1014.8 in NE 3.7 mph 3.9 mph 89 % 0.0 in
21:55 18.2 °F 17.1 °F 1015.8 in Calm     93 % 0.0 in
21:58 19.1 °F 17.2 °F 1014.8 in NE 5.6 mph 5.6 mph 89 % 0.0 in
22:03 19.1 °F 17.2 °F 1014.8 in Calm     89 % 0.0 in
22:05 18.1 °F 16.9 °F 1015.8 in Calm     93 % 0.0 in
22:08 19.1 °F 17.2 °F 1015.8 in Calm     89 % 0.0 in
22:13 19.1 °F 17.2 °F 1015.8 in NE 2.6 mph   89 % 0.0 in
22:15 18.0 °F 16.8 °F 1015.8 in Calm     93 % 0.0 in
22:18 19.2 °F 17.3 °F 1015.8 in ENE 3.7 mph 3.7 mph 89 % 0.0 in
22:23 19.2 °F 17.3 °F 1015.8 in NE 1.9 mph   89 % 0.0 in
22:25 18.0 °F 16.8 °F 1014.8 in Calm     93 % 0.0 in
22:28 19.2 °F 17.3 °F 1015.8 in ENE 3.7 mph 3.7 mph 89 % 0.0 in
22:33 19.2 °F 17.5 °F 1015.8 in NE 3.7 mph 3.7 mph 90 % 0.0 in
22:35 18.0 °F 16.8 °F 1014.8 in Calm     93 % 0.0 in
22:38 19.1 °F 17.4 °F 1015.8 in Calm     90 % 0.0 in
22:43 19.1 °F 17.2 °F 1015.8 in SW 3.7 mph 3.7 mph 89 % 0.0 in
22:45 18.0 °F 16.8 °F 1014.8 in Calm     93 % 0.0 in
22:48 19.0 °F 17.2 °F 1015.8 in SW 3.7 mph 3.7 mph 89 % 0.0 in
22:53 19.0 °F 17.2 °F 1015.8 in WSW 3.7 mph 3.7 mph 89 % 0.0 in
22:55 18.0 °F 16.8 °F 1014.8 in Calm     93 % 0.0 in
22:58 19.0 °F 17.2 °F 1015.8 in Calm     89 % 0.0 in
23:03 19.0 °F 17.3 °F 1015.8 in Calm     90 % 0.0 in
23:05 17.8 °F 16.8 °F 1013.8 in Calm     94 % 0.0 in
23:08 19.0 °F 17.3 °F 1015.8 in WSW 2.6 mph 2.6 mph 90 % 0.0 in
23:13 19.0 °F 17.2 °F 1015.8 in SW 3.7 mph 3.7 mph 89 % 0.0 in
23:15 17.6 °F 16.4 °F 1013.8 in Calm     93 % 0.0 in
23:18 18.9 °F 17.2 °F 1015.8 in West 3.5 mph   90 % 0.0 in
23:23 19.0 °F 17.2 °F 1015.8 in SW 3.7 mph 3.7 mph 89 % 0.0 in
23:25 17.5 °F 16.3 °F 1014.8 in Calm     93 % 0.0 in
23:28 19.0 °F 17.3 °F 1015.8 in Calm     90 % 0.0 in
23:33 18.9 °F 17.4 °F 1015.8 in Calm     91 % 0.0 in
23:35 17.4 °F 16.3 °F 1013.8 in SW 1.6 mph 3.2 mph 93 % 0.0 in
23:38 19.0 °F 17.3 °F 1015.8 in Calm     90 % 0.0 in
23:43 19.0 °F 17.3 °F 1015.8 in Calm     90 % 0.0 in
23:45 17.3 °F 16.2 °F 1013.8 in SW 1.6 mph 3.2 mph 93 % 0.0 in
23:48 19.0 °F 17.3 °F 1015.8 in Calm     90 % 0.0 in
23:53 18.9 °F 17.4 °F 1015.8 in Calm     91 % 0.0 in
23:55 17.3 °F 16.3 °F 1014.8 in Calm   1.6 mph 94 % 0.0 in
23:58 19.0 °F 17.3 °F 1015.8 in Calm     90 % 0.0 in
Meteo Sesrovires
Elogis d' Weather Underground - 1.5 mb

Guio original per  Jim McMurry - jmcmurry@mwt.net Adaptat per a la plantilla per  Wim van der Kuil - Leuven-Template.eu

Trobareu la nostra informacio del temps tambe a:

Weather Underground

AWEKAS